Time;durP1;ratioP1;P1;durP2;ratioP2;P2;SDS_P1;SDS_P2;PMS_P1;PMS_P2;Temp;Humidity;BMP_temperature;BMP_pressure;BME280_temperature;BME280_humidity;BME280_pressure;Samples;Min_cycle;Max_cycle;Signal;HPM_P1;HPM_P2
2021/01/21 00:00:51;;;;;;;8.73;1.37;;;;;;;8.45;61.53;98454.81;4994140;28;20177;-73
2021/01/21 00:03:16;;;;;;;1.40;0.80;;;;;;;8.51;61.62;98442.53;4994059;28;20193;-77
2021/01/21 00:05:41;;;;;;;2.20;1.43;;;;;;;8.54;61.17;98425.53;4993946;28;20216;-74
2021/01/21 00:08:07;;;;;;;2.20;1.00;;;;;;;8.60;61.41;98435.81;4993666;28;20632;-77
2021/01/21 00:10:32;;;;;;;2.87;1.13;;;;;;;8.64;60.99;98414.94;4994386;28;20181;-73
2021/01/21 00:12:57;;;;;;;2.20;1.30;;;;;;;8.79;60.26;98409.84;4993858;28;20636;-76
2021/01/21 00:15:23;;;;;;;1.90;1.33;;;;;;;8.72;61.10;98413.19;4976491;28;20588;-78
2021/01/21 00:17:48;;;;;;;1.93;1.30;;;;;;;8.75;59.86;98398.88;4992674;28;20180;-72
2021/01/21 00:20:14;;;;;;;1.87;0.90;;;;;;;8.67;60.21;98397.09;4993678;28;20204;-73
2021/01/21 00:22:39;;;;;;;1.53;0.90;;;;;;;8.79;59.86;98397.03;4993763;28;20268;-73
2021/01/21 00:25:05;;;;;;;1.83;1.20;;;;;;;8.83;60.23;98405.31;4993487;28;20292;-73
2021/01/21 00:27:31;;;;;;;2.97;1.63;;;;;;;8.73;60.26;98403.88;4992417;28;20629;-73
2021/01/21 00:29:56;;;;;;;0.80;0.73;;;;;;;8.83;59.84;98395.22;4993578;28;20173;-73
2021/01/21 00:32:21;;;;;;;1.57;1.33;;;;;;;8.72;60.13;98399.59;4976062;28;20625;-74
2021/01/21 00:34:47;;;;;;;1.83;1.43;;;;;;;8.80;59.71;98417.66;4993719;28;20181;-72
2021/01/21 00:37:13;;;;;;;2.93;1.10;;;;;;;8.72;60.13;98410.47;4993141;28;20188;-72
2021/01/21 00:39:38;;;;;;;3.30;1.60;;;;;;;8.64;60.62;98414.94;4993412;28;20173;-72
2021/01/21 00:42:04;;;;;;;3.40;1.20;;;;;;;8.72;60.31;98409.69;4993490;28;20640;-73
2021/01/21 00:44:29;;;;;;;2.17;1.30;;;;;;;8.73;60.05;98400.38;4993175;28;20201;-73
2021/01/21 00:46:54;;;;;;;3.03;1.50;;;;;;;8.65;60.39;98393.94;4992904;28;20726;-73
2021/01/21 00:49:19;;;;;;;3.00;1.50;;;;;;;8.69;60.35;98383.16;4993169;28;20185;-72
2021/01/21 00:51:45;;;;;;;3.03;1.40;;;;;;;8.72;60.32;98388.69;4993084;28;20276;-73
2021/01/21 00:54:10;;;;;;;2.87;1.33;;;;;;;8.67;60.62;98374.53;4993218;28;20236;-73
2021/01/21 00:56:35;;;;;;;3.00;1.40;;;;;;;8.61;60.67;98384.91;4992734;28;20331;-73
2021/01/21 00:59:01;;;;;;;1.47;1.30;;;;;;;8.50;61.22;98381.09;4992914;28;20185;-73
2021/01/21 01:01:26;;;;;;;2.80;1.57;;;;;;;8.42;62.01;98380.13;4993073;28;20240;-72
2021/01/21 01:03:51;;;;;;;2.10;1.30;;;;;;;8.31;61.51;98379.78;4992688;28;20176;-73
2021/01/21 01:06:17;;;;;;;4.70;1.60;;;;;;;8.09;62.19;98371.38;4992717;28;20291;-73
2021/01/21 01:08:42;;;;;;;2.37;1.63;;;;;;;8.01;62.34;98362.25;4992855;28;20268;-72
2021/01/21 01:11:10;;;;;;;2.63;1.50;;;;;;;8.01;62.96;98362.25;4992798;28;20717;-73
2021/01/21 01:13:35;;;;;;;1.70;1.20;;;;;;;7.94;63.27;98362.03;4992924;28;20507;-73
2021/01/21 01:16:00;;;;;;;1.53;1.03;;;;;;;7.88;63.47;98357.97;4992629;28;20176;-73
2021/01/21 01:18:26;;;;;;;2.50;1.80;;;;;;;7.77;63.58;98352.22;4991402;28;20185;-72
2021/01/21 01:20:51;;;;;;;2.43;1.33;;;;;;;7.86;63.60;98365.69;4992555;28;20177;-72
2021/01/21 01:23:16;;;;;;;2.07;1.20;;;;;;;7.90;63.73;98350.25;4992802;28;20173;-73
2021/01/21 01:25:42;;;;;;;3.80;1.70;;;;;;;7.93;63.49;98341.41;4992368;28;20216;-73
2021/01/21 01:28:07;;;;;;;2.47;1.20;;;;;;;7.86;63.47;98333.06;4992172;28;20172;-72
2021/01/21 01:30:32;;;;;;;2.37;1.40;;;;;;;7.87;64.18;98332.72;4974835;28;20185;-72
2021/01/21 01:32:58;;;;;;;3.30;1.30;;;;;;;7.80;63.88;98329.00;4992283;28;20169;-75
2021/01/21 01:35:23;;;;;;;3.60;1.90;;;;;;;7.84;64.14;98319.03;4992258;28;20173;-73
2021/01/21 01:37:48;;;;;;;1.40;1.30;;;;;;;7.83;63.69;98299.22;4991997;28;20204;-73
2021/01/21 01:40:15;;;;;;;4.33;1.40;;;;;;;7.85;63.53;98296.94;4992072;28;20183;-73
2021/01/21 01:42:41;;;;;;;5.77;1.93;;;;;;;7.88;63.60;98292.72;4992201;28;20204;-74
2021/01/21 01:45:08;;;;;;;3.57;1.53;;;;;;;7.81;64.62;98289.81;4991975;28;20212;-73
2021/01/21 01:47:39;;;;;;;2.53;1.70;;;;;;;7.64;64.57;98277.28;4991556;28;20173;-74
2021/01/21 01:50:06;;;;;;;3.87;1.50;;;;;;;7.69;64.83;98274.34;4992127;28;20235;-72
2021/01/21 01:52:31;;;;;;;1.30;1.17;;;;;;;7.74;64.55;98274.88;4991839;28;20688;-73
2021/01/21 01:54:56;;;;;;;2.33;1.57;;;;;;;7.76;64.16;98263.66;4992270;28;20181;-72
2021/01/21 01:57:26;;;;;;;2.27;1.20;;;;;;;8.23;62.89;98262.97;4991594;28;20640;-73
2021/01/21 01:59:54;;;;;;;1.27;0.80;;;;;;;8.29;62.84;98265.09;4991896;28;20530;-73
2021/01/21 02:02:20;;;;;;;0.87;0.83;;;;;;;8.57;61.09;98254.16;4991655;28;20177;-74
2021/01/21 02:04:46;;;;;;;2.77;1.30;;;;;;;8.76;60.59;98239.03;4991690;28;20212;-73
2021/01/21 02:07:13;;;;;;;2.73;1.33;;;;;;;8.84;60.46;98260.66;4991211;28;20661;-72
2021/01/21 02:09:39;;;;;;;2.73;1.30;;;;;;;9.07;59.54;98233.53;4974430;28;20582;-73
2021/01/21 02:12:48;;;;;;;1.50;1.17;;;;;;;9.23;58.83;98222.59;4991710;28;20185;-73
2021/01/21 02:15:26;;;;;;;7.27;0.80;;;;;;;9.30;58.59;98225.47;4928307;28;20476;-73
2021/01/21 02:18:01;;;;;;;0.57;0.50;;;;;;;9.35;58.52;98214.28;4990424;28;20191;-74
2021/01/21 02:21:10;;;;;;;1.00;0.80;;;;;;;9.45;58.14;98208.28;4991808;28;20180;-72
2021/01/21 02:23:54;;;;;;;2.37;1.10;;;;;;;9.49;58.13;98200.94;4991649;28;20224;-75
2021/01/21 02:26:27;;;;;;;1.87;1.23;;;;;;;9.51;57.71;98179.56;4991675;28;20248;-73
2021/01/21 02:29:02;;;;;;;2.27;1.33;;;;;;;9.43;57.98;98187.97;4994315;28;20212;-73
2021/01/21 02:31:35;;;;;;;1.93;1.13;;;;;;;9.53;57.72;98171.03;4992335;28;20180;-72
2021/01/21 02:34:05;;;;;;;1.77;1.13;;;;;;;9.59;57.48;98160.63;4991464;28;20173;-72
2021/01/21 02:36:42;;;;;;;5.73;0.60;;;;;;;9.71;56.80;98155.81;4991385;28;20177;-72
2021/01/21 02:39:10;;;;;;;1.10;0.80;;;;;;;9.65;57.01;98154.53;4974117;28;20172;-73
2021/01/21 02:41:36;;;;;;;0.93;0.60;;;;;;;9.69;57.18;98144.50;4991481;28;20177;-73
2021/01/21 02:44:01;;;;;;;1.47;1.00;;;;;;;9.59;57.12;98115.09;4991183;28;20187;-73
2021/01/21 02:46:26;;;;;;;1.97;0.87;;;;;;;9.70;56.83;98126.19;4991037;28;20192;-72
2021/01/21 02:48:53;;;;;;;2.53;0.93;;;;;;;9.71;56.29;98112.19;4991219;28;20587;-73
2021/01/21 02:51:33;;;;;;;1.30;1.00;;;;;;;9.71;56.36;98100.50;4996127;28;20196;-73
2021/01/21 02:54:35;;;;;;;1.10;0.90;;;;;;;9.76;56.08;98094.72;4997703;28;20524;-72
2021/01/21 02:57:20;;;;;;;0.90;0.53;;;;;;;9.76;56.17;98098.25;4979672;28;20185;-73
2021/01/21 02:59:46;;;;;;;0.97;0.77;;;;;;;9.76;55.85;98083.81;4997679;28;20176;-73
2021/01/21 03:02:12;;;;;;;1.57;1.00;;;;;;;9.73;56.18;98082.63;4997680;28;20181;-73
2021/01/21 03:04:39;;;;;;;0.60;0.60;;;;;;;9.73;56.07;98088.06;4997369;28;20204;-73
2021/01/21 03:07:07;;;;;;;3.83;1.13;;;;;;;9.73;55.66;98084.56;4997202;28;20184;-74
2021/01/21 03:09:34;;;;;;;2.10;0.80;;;;;;;9.81;55.45;98067.94;4997526;28;20243;-72
2021/01/21 03:12:21;;;;;;;1.80;0.80;;;;;;;9.80;55.44;98062.84;4997729;28;20173;-73
2021/01/21 03:14:47;;;;;;;2.93;1.50;;;;;;;9.75;55.72;98058.50;4997469;28;20177;-73
2021/01/21 03:17:13;;;;;;;1.43;0.83;;;;;;;9.77;55.48;98074.50;4996120;28;20631;-72
2021/01/21 03:19:38;;;;;;;0.77;0.70;;;;;;;9.72;55.87;98066.63;4997655;28;20177;-72
2021/01/21 03:22:04;;;;;;;0.90;0.60;;;;;;;9.67;55.53;98048.63;4997533;28;20623;-73
2021/01/21 03:24:29;;;;;;;1.30;0.50;;;;;;;9.62;55.34;98050.88;4997299;28;20215;-73
2021/01/21 03:26:55;;;;;;;1.37;1.07;;;;;;;9.59;55.69;98030.56;4997032;28;20188;-72
2021/01/21 03:29:20;;;;;;;3.03;1.07;;;;;;;9.60;55.35;98017.75;4997419;28;20181;-73
2021/01/21 03:31:45;;;;;;;1.53;1.10;;;;;;;9.53;55.59;98037.47;4996680;28;20177;-73
2021/01/21 03:34:11;;;;;;;2.00;0.80;;;;;;;9.57;55.74;98032.09;4997233;28;20231;-72
2021/01/21 03:36:36;;;;;;;1.33;0.90;;;;;;;9.62;55.32;98032.56;4997090;28;20667;-73
2021/01/21 03:39:02;;;;;;;0.60;0.60;;;;;;;9.61;55.38;98038.38;4997366;28;20566;-73
2021/01/21 03:41:27;;;;;;;0.50;0.40;;;;;;;9.73;54.60;98040.94;4997216;28;20641;-73
2021/01/21 03:43:52;;;;;;;1.83;1.00;;;;;;;9.61;55.64;98032.94;4997329;28;20200;-73
2021/01/21 03:46:18;;;;;;;1.20;0.97;;;;;;;9.58;55.60;98031.72;4996690;28;20714;-72
2021/01/21 03:48:43;;;;;;;2.77;0.60;;;;;;;9.59;55.26;98014.22;4997185;28;20188;-73
2021/01/21 03:51:08;;;;;;;1.20;1.10;;;;;;;9.64;55.09;98013.13;4996978;28;20252;-73
2021/01/21 03:53:34;;;;;;;0.80;0.80;;;;;;;9.59;55.53;97997.09;4997244;28;20182;-73
2021/01/21 03:55:59;;;;;;;1.90;1.00;;;;;;;9.61;55.47;98008.41;4996936;28;20185;-73
2021/01/21 03:58:24;;;;;;;2.00;0.93;;;;;;;9.58;55.32;98022.78;4996946;28;20181;-76
2021/01/21 04:00:50;;;;;;;1.90;0.87;;;;;;;9.54;55.80;98014.50;4997191;28;20177;-73
2021/01/21 04:03:15;;;;;;;1.07;0.90;;;;;;;9.39;55.90;98002.56;4993064;28;20184;-81
2021/01/21 04:05:40;;;;;;;0.83;0.70;;;;;;;9.30;56.01;97993.88;4994137;28;20287;-80
2021/01/21 04:08:06;;;;;;;2.03;1.03;;;;;;;9.40;55.58;97987.00;4993730;28;20222;-76
2021/01/21 04:10:31;;;;;;;2.03;1.20;;;;;;;9.39;55.76;97969.09;4994266;28;20187;-73
2021/01/21 04:12:56;;;;;;;1.60;1.03;;;;;;;9.42;55.40;97966.44;4994436;28;20188;-79
2021/01/21 04:15:21;;;;;;;1.70;1.50;;;;;;;9.36;55.48;97969.81;4994510;28;20174;-79
2021/01/21 04:17:47;;;;;;;1.10;0.87;;;;;;;9.47;55.08;97970.78;4992657;28;20177;-76
2021/01/21 04:20:12;;;;;;;0.97;0.73;;;;;;;9.46;55.26;97974.69;4993788;28;20178;-75
2021/01/21 04:22:38;;;;;;;2.40;1.10;;;;;;;9.32;55.26;97942.53;4993975;28;20177;-75
2021/01/21 04:25:03;;;;;;;1.30;0.90;;;;;;;9.36;55.13;97945.31;4993537;28;20215;-73
2021/01/21 04:27:29;;;;;;;3.17;1.07;;;;;;;9.37;54.94;97925.88;4993212;28;20534;-77
2021/01/21 04:29:54;;;;;;;1.37;0.90;;;;;;;9.28;55.29;97933.50;4993629;28;20216;-77
2021/01/21 04:32:19;;;;;;;1.13;0.97;;;;;;;9.43;54.75;97923.63;4993465;28;20235;-80
2021/01/21 04:34:45;;;;;;;1.33;0.50;;;;;;;9.44;54.35;97917.81;4993485;28;20624;-72
2021/01/21 04:37:10;;;;;;;2.00;1.00;;;;;;;9.46;54.64;97912.78;4993261;28;20184;-76
2021/01/21 04:39:35;;;;;;;0.93;0.63;;;;;;;9.48;54.23;97924.09;4993446;28;20188;-74
2021/01/21 04:42:01;;;;;;;0.60;0.30;;;;;;;9.49;54.01;97933.84;4993432;28;20213;-76
2021/01/21 04:44:26;;;;;;;1.40;0.73;;;;;;;9.51;54.50;97937.00;4993215;28;20311;-73
2021/01/21 04:46:52;;;;;;;1.00;0.87;;;;;;;9.47;54.12;97906.19;4993245;28;20659;-73
2021/01/21 04:49:18;;;;;;;2.13;0.90;;;;;;;9.57;53.35;97925.78;4993271;28;20686;-72
2021/01/21 04:51:45;;;;;;;0.97;0.90;;;;;;;9.56;54.00;97918.78;4993156;28;20207;-73
2021/01/21 04:54:15;;;;;;;3.63;0.37;;;;;;;9.59;53.40;97948.00;4993028;28;20177;-76
2021/01/21 04:56:47;;;;;;;0.87;0.87;;;;;;;9.52;54.24;97935.84;4992689;28;20724;-73
2021/01/21 04:59:16;;;;;;;1.30;1.10;;;;;;;9.41;54.11;97932.19;4993018;28;20224;-73
2021/01/21 05:01:42;;;;;;;1.63;0.83;;;;;;;9.40;54.09;97908.81;4993045;28;20264;-73
2021/01/21 05:04:07;;;;;;;1.00;1.00;;;;;;;9.38;53.46;97902.91;4992711;28;20260;-72
2021/01/21 05:06:33;;;;;;;1.03;0.90;;;;;;;9.34;53.90;97929.31;4992562;28;20508;-72
2021/01/21 05:09:01;;;;;;;0.70;0.47;;;;;;;9.37;53.91;97895.88;4975173;28;20186;-73
2021/01/21 05:11:26;;;;;;;1.60;1.23;;;;;;;9.29;54.40;97898.88;4992894;28;20180;-72
2021/01/21 05:13:52;;;;;;;0.33;0.30;;;;;;;9.21;54.44;97881.63;4974905;28;20636;-72
2021/01/21 05:16:17;;;;;;;1.43;0.70;;;;;;;9.31;53.92;97908.25;4992341;28;20177;-75
2021/01/21 05:18:43;;;;;;;1.30;1.10;;;;;;;9.26;54.52;97914.03;4991771;28;20181;-77
2021/01/21 05:21:09;;;;;;;0.93;0.80;;;;;;;9.30;54.05;97920.31;4992685;28;20182;-73
2021/01/21 05:23:35;;;;;;;1.07;0.63;;;;;;;9.30;54.48;97917.59;4992668;28;20177;-75
2021/01/21 05:26:01;;;;;;;0.50;0.50;;;;;;;9.24;54.39;97930.72;4992460;28;20702;-73
2021/01/21 05:28:27;;;;;;;1.20;1.03;;;;;;;9.30;54.43;97946.78;4992061;28;20543;-75
2021/01/21 05:30:53;;;;;;;1.50;0.70;;;;;;;9.34;54.01;97947.63;4992763;28;20182;-73
2021/01/21 05:33:20;;;;;;;1.03;0.57;;;;;;;9.37;53.98;97925.06;4992479;28;20181;-77
2021/01/21 05:35:47;;;;;;;3.30;0.90;;;;;;;9.34;54.42;97912.19;4992275;28;20216;-72
2021/01/21 05:38:13;;;;;;;0.70;0.60;;;;;;;9.37;54.15;97923.13;4974588;28;20177;-77
2021/01/21 05:40:44;;;;;;;1.33;0.80;;;;;;;9.43;54.35;97918.97;4992196;28;20185;-78
2021/01/21 05:43:09;;;;;;;2.47;0.83;;;;;;;9.43;54.32;97907.28;4992095;28;20172;-73
2021/01/21 05:45:35;;;;;;;1.33;0.90;;;;;;;9.57;53.90;97920.34;4992222;28;20209;-76
2021/01/21 05:48:02;;;;;;;1.37;0.57;;;;;;;9.58;54.13;97911.00;4991792;28;20699;-73
2021/01/21 05:50:29;;;;;;;3.20;1.10;;;;;;;9.63;54.08;97919.66;4992072;28;20172;-73
2021/01/21 05:52:56;;;;;;;0.47;0.40;;;;;;;9.63;54.28;97914.19;4991832;28;20279;-75
2021/01/21 05:55:23;;;;;;;1.10;0.77;;;;;;;9.62;53.90;97906.38;4991923;28;20331;-74
2021/01/21 05:57:49;;;;;;;0.90;0.40;;;;;;;9.63;54.48;97911.47;4991517;28;20179;-74
2021/01/21 06:00:17;;;;;;;1.03;0.40;;;;;;;9.67;54.15;97914.25;4991842;28;20192;-72
2021/01/21 06:02:49;;;;;;;1.33;0.87;;;;;;;9.69;54.34;97914.66;4991922;28;20173;-74
2021/01/21 06:05:21;;;;;;;3.33;1.00;;;;;;;9.69;54.49;97912.75;4991661;28;20223;-74
2021/01/21 06:07:48;;;;;;;0.77;0.50;;;;;;;9.73;54.40;97910.84;4991452;28;20771;-75
2021/01/21 06:10:14;;;;;;;0.30;0.30;;;;;;;9.83;54.04;97917.59;4991637;28;20185;-81
2021/01/21 06:12:47;;;;;;;2.20;0.80;;;;;;;9.87;54.37;97899.34;4991748;28;20199;-72
2021/01/21 06:15:14;;;;;;;2.43;0.60;;;;;;;9.76;54.72;97906.59;4991694;28;20307;-75
2021/01/21 06:17:44;;;;;;;1.97;1.37;;;;;;;9.80;55.11;97900.03;4990552;28;20173;-73
2021/01/21 06:20:11;;;;;;;0.47;0.40;;;;;;;9.91;54.58;97921.22;4991707;28;20174;-73
2021/01/21 06:22:40;;;;;;;1.17;1.07;;;;;;;9.90;55.24;97906.78;4991352;28;20319;-76
2021/01/21 06:25:10;;;;;;;1.17;0.50;;;;;;;9.93;55.40;97908.78;4990757;28;20233;-74
2021/01/21 06:27:37;;;;;;;2.07;0.40;;;;;;;9.94;55.12;97896.72;4991254;28;20174;-73
2021/01/21 06:30:03;;;;;;;1.40;1.13;;;;;;;9.88;55.71;97905.59;4991566;28;20779;-76
2021/01/21 06:32:42;;;;;;;0.73;0.60;;;;;;;10.08;55.65;97907.81;4991464;28;20177;-74
2021/01/21 06:35:10;;;;;;;0.93;0.67;;;;;;;10.24;55.20;97885.03;4991374;28;20656;-81
2021/01/21 06:37:37;;;;;;;1.73;0.70;;;;;;;10.31;54.79;97896.03;4991015;28;20180;-79
2021/01/21 06:40:08;;;;;;;2.33;0.60;;;;;;;10.37;55.03;97900.00;4991444;28;20188;-79
2021/01/21 06:42:36;;;;;;;0.83;0.70;;;;;;;10.33;55.11;97894.50;4973953;28;20647;-75
2021/01/21 06:45:04;;;;;;;0.70;0.40;;;;;;;10.32;55.54;97890.22;4991325;28;20200;-76
2021/01/21 06:47:30;;;;;;;7.43;0.80;;;;;;;10.43;55.26;97884.88;4991026;28;20576;-76
2021/01/21 06:49:58;;;;;;;0.70;0.50;;;;;;;10.45;55.31;97892.69;4991449;28;20182;-80
2021/01/21 06:52:25;;;;;;;0.73;0.73;;;;;;;10.45;55.01;97896.22;4991179;28;20224;-75
2021/01/21 06:54:52;;;;;;;1.17;0.60;;;;;;;10.51;55.20;97886.50;4991161;28;20653;-75
2021/01/21 06:57:36;;;;;;;0.80;0.80;;;;;;;10.51;55.11;97905.63;4990872;28;20181;-77
2021/01/21 07:00:04;;;;;;;0.60;0.30;;;;;;;10.60;54.80;97916.25;4991245;28;20253;-79
2021/01/21 07:02:49;;;;;;;0.60;0.60;;;;;;;10.63;55.30;97919.03;4991238;28;20567;-77
2021/01/21 07:05:22;;;;;;;3.30;0.43;;;;;;;10.57;56.10;97922.47;4991104;28;20204;-82
2021/01/21 07:07:56;;;;;;;0.47;0.40;;;;;;;10.56;55.86;97927.16;4991011;28;20213;-76
2021/01/21 07:10:42;;;;;;;1.37;0.40;;;;;;;10.57;56.21;97923.25;4973712;28;20548;-74
2021/01/21 07:13:18;;;;;;;0.90;0.80;;;;;;;10.57;56.05;97931.44;4991062;28;20305;-78
2021/01/21 07:15:49;;;;;;;0.73;0.43;;;;;;;10.60;56.20;97946.28;4991250;28;20181;-74
2021/01/21 07:18:20;;;;;;;0.73;0.50;;;;;;;10.55;56.66;97933.75;4989937;28;20170;-74
2021/01/21 07:21:00;;;;;;;0.80;0.80;;;;;;;10.58;56.47;97940.44;4991100;28;20200;-82
2021/01/21 07:23:39;;;;;;;1.37;0.90;;;;;;;10.50;56.75;97925.91;4991075;28;20177;-82
2021/01/21 07:26:14;;;;;;;0.20;0.20;;;;;;;10.51;56.79;97935.66;4990689;28;20299;-73
2021/01/21 07:29:02;;;;;;;0.87;0.37;;;;;;;10.48;56.77;97928.22;4991043;28;20177;-78
2021/01/21 07:31:29;;;;;;;0.87;0.50;;;;;;;10.49;57.40;97924.31;4990918;28;20264;-80
2021/01/21 07:34:21;;;;;;;1.33;0.50;;;;;;;10.48;57.40;97936.41;4990953;28;20585;-81
2021/01/21 07:36:46;;;;;;;1.20;0.50;;;;;;;10.48;57.46;97927.44;4983473;28;20372;-81
2021/01/21 07:39:11;;;;;;;0.63;0.30;;;;;;;10.48;57.39;97930.94;4994512;28;20169;-76
2021/01/21 07:41:42;;;;;;;1.17;0.83;;;;;;;10.50;57.14;97944.22;4994567;28;20177;-72
2021/01/21 07:44:08;;;;;;;0.70;0.40;;;;;;;10.50;57.21;97936.81;4994505;28;20173;-79
2021/01/21 07:46:34;;;;;;;0.80;0.53;;;;;;;10.48;57.67;97939.13;4994272;28;20216;-72
2021/01/21 07:49:22;;;;;;;1.23;0.70;;;;;;;10.52;57.77;97939.16;4994404;28;20584;-76
2021/01/21 07:52:04;;;;;;;0.60;0.60;;;;;;;10.51;57.77;97949.31;4994182;28;20219;-74
2021/01/21 07:54:31;;;;;;;2.40;1.17;;;;;;;10.52;57.85;97980.13;4976845;28;20177;-73
2021/01/21 07:56:57;;;;;;;1.13;0.53;;;;;;;10.74;57.32;98003.81;4994099;28;20335;-77
2021/01/21 07:59:22;;;;;;;0.50;0.40;;;;;;;10.70;57.45;98036.53;4994857;28;20664;-78
2021/01/21 08:01:59;;;;;;;1.33;0.60;;;;;;;10.69;58.46;98024.00;4995110;28;20636;-83
2021/01/21 08:04:25;;;;;;;0.50;0.50;;;;;;;10.66;58.38;98075.88;4977262;28;20172;-76
2021/01/21 08:06:55;;;;;;;0.53;0.47;;;;;;;10.65;58.81;98077.81;4994248;28;20183;-77
2021/01/21 08:09:21;;;;;;;0.60;0.40;;;;;;;10.62;59.31;98102.34;4994644;28;20227;-78
2021/01/21 08:11:48;;;;;;;2.43;0.73;;;;;;;10.47;60.99;98149.69;4994301;28;20520;-76
2021/01/21 08:14:15;;;;;;;5.00;0.23;;;;;;;8.21;70.38;98184.44;4976932;28;20246;-77
2021/01/21 08:16:41;;;;;;;0.23;0.20;;;;;;;7.11;74.60;98201.28;4976230;28;20180;-74
2021/01/21 08:19:07;;;;;;;1.20;0.20;;;;;;;6.67;77.17;98192.22;4993731;28;20177;-73
2021/01/21 08:21:32;;;;;;;0.10;0.10;;;;;;;6.46;78.54;98235.72;4994209;28;20541;-77
2021/01/21 08:23:59;;;;;;;0.03;0.03;;;;;;;6.34;78.46;98233.00;4994534;28;20181;-79
2021/01/21 08:26:29;;;;;;;0.20;0.10;;;;;;;6.22;79.28;98251.94;4993722;28;20238;-74
2021/01/21 08:28:55;;;;;;;0.10;0.10;;;;;;;6.23;78.35;98272.53;4993947;28;20173;-74
2021/01/21 08:31:31;;;;;;;0.10;0.10;;;;;;;6.23;77.26;98277.97;4976277;28;20174;-81
2021/01/21 08:33:57;;;;;;;0.53;0.20;;;;;;;6.14;77.36;98291.59;4994516;28;20172;-73
2021/01/21 08:36:25;;;;;;;0.83;0.30;;;;;;;6.11;78.00;98292.28;4996158;28;20527;-74
2021/01/21 08:38:50;;;;;;;1.53;0.33;;;;;;;6.13;78.11;98300.88;4994852;28;20165;-73
2021/01/21 08:41:18;;;;;;;0.23;0.23;;;;;;;6.20;77.11;98292.16;4993682;28;20180;-73
2021/01/21 08:43:45;;;;;;;0.13;0.13;;;;;;;6.31;76.09;98306.91;4993901;28;20180;-73
2021/01/21 08:46:12;;;;;;;0.30;0.10;;;;;;;6.58;68.45;98300.06;4993639;28;20300;-73
2021/01/21 08:48:37;;;;;;;0.03;0.00;;;;;;;6.71;67.68;98295.44;4993630;28;20185;-73
2021/01/21 08:51:02;;;;;;;0.00;0.00;;;;;;;6.70;66.10;98316.34;4993433;28;20184;-73
2021/01/21 08:53:30;;;;;;;0.40;0.10;;;;;;;6.69;66.89;98314.75;4993470;28;20191;-76
2021/01/21 08:55:57;;;;;;;0.30;0.17;;;;;;;6.66;67.42;98323.59;4992358;28;20181;-74
2021/01/21 08:58:30;;;;;;;0.00;0.00;;;;;;;6.64;66.99;98330.44;4993049;28;20170;-73
2021/01/21 09:01:09;;;;;;;1.07;0.10;;;;;;;6.54;68.18;98318.13;4993048;28;20185;-74
2021/01/21 09:03:45;;;;;;;0.60;0.10;;;;;;;6.44;68.72;98308.50;4991673;28;20185;-73
2021/01/21 09:06:16;;;;;;;0.37;0.10;;;;;;;6.43;68.57;98303.41;4992608;28;20213;-72
2021/01/21 09:08:50;;;;;;;0.27;0.10;;;;;;;6.45;69.32;98276.75;4992916;28;20184;-72
2021/01/21 09:11:28;;;;;;;0.00;0.00;;;;;;;6.50;69.11;98266.47;4993042;28;20161;-72
2021/01/21 09:13:55;;;;;;;0.00;0.00;;;;;;;6.57;68.98;98280.28;4992839;28;20213;-72
2021/01/21 09:16:38;;;;;;;0.10;0.10;;;;;;;6.66;69.10;98284.81;4992553;28;20528;-71
2021/01/21 09:19:04;;;;;;;0.50;0.50;;;;;;;6.70;69.08;98283.00;4992259;28;20196;-72
2021/01/21 09:21:29;;;;;;;0.87;0.20;;;;;;;6.69;68.96;98281.41;4992426;28;20185;-74
2021/01/21 09:24:05;;;;;;;0.00;0.00;;;;;;;6.67;67.88;98289.91;4992035;28;20232;-74
2021/01/21 09:26:30;;;;;;;0.00;0.00;;;;;;;6.68;68.38;98310.47;4991647;28;20682;-72
2021/01/21 09:28:59;;;;;;;0.40;0.10;;;;;;;6.60;67.50;98310.56;4992014;28;20178;-72
2021/01/21 09:31:31;;;;;;;0.30;0.20;;;;;;;6.54;68.43;98307.28;4992232;28;20181;-72
2021/01/21 09:33:57;;;;;;;0.20;0.10;;;;;;;6.48;68.85;98328.41;4992254;28;20181;-72
2021/01/21 09:36:30;;;;;;;0.00;0.00;;;;;;;6.42;67.83;98318.91;4991232;28;20268;-73
2021/01/21 09:38:56;;;;;;;0.00;0.00;;;;;;;6.41;68.10;98330.88;4992023;28;20261;-73
2021/01/21 09:41:23;;;;;;;0.13;0.13;;;;;;;6.42;68.18;98323.53;4991918;28;20651;-75
2021/01/21 09:43:48;;;;;;;0.27;0.10;;;;;;;6.45;67.83;98310.09;4974162;28;20676;-73
2021/01/21 09:46:14;;;;;;;0.73;0.30;;;;;;;6.42;66.90;98291.78;4991138;28;20213;-77
2021/01/21 09:48:40;;;;;;;0.57;0.10;;;;;;;6.44;67.64;98305.00;4991704;28;20579;-73
2021/01/21 09:51:06;;;;;;;0.10;0.10;;;;;;;6.43;67.77;98309.63;4973918;28;20620;-74
2021/01/21 09:53:31;;;;;;;0.27;0.10;;;;;;;6.44;67.42;98303.06;4992051;28;20523;-73
2021/01/21 09:55:56;;;;;;;0.07;0.07;;;;;;;6.44;66.61;98319.34;4991398;28;20212;-72
2021/01/21 09:58:25;;;;;;;0.57;0.10;;;;;;;6.46;65.96;98305.44;4991132;28;20652;-73
2021/01/21 10:00:51;;;;;;;0.00;0.00;;;;;;;6.44;65.98;98288.72;4990564;28;20204;-73
2021/01/21 10:03:17;;;;;;;0.30;0.20;;;;;;;6.43;65.62;98298.78;4991058;28;20181;-73
2021/01/21 10:05:42;;;;;;;0.20;0.10;;;;;;;6.43;65.71;98295.28;4991255;28;20571;-73
2021/01/21 10:08:07;;;;;;;0.10;0.10;;;;;;;6.44;64.23;98305.78;4990847;28;20260;-73
2021/01/21 10:10:32;;;;;;;0.00;0.00;;;;;;;6.46;64.89;98344.22;4991608;28;20193;-72
2021/01/21 10:12:58;;;;;;;0.63;0.23;;;;;;;6.46;64.55;98340.72;4991365;28;20201;-72
2021/01/21 10:15:23;;;;;;;0.10;0.10;;;;;;;6.50;64.43;98336.97;4991349;28;20633;-72
2021/01/21 10:17:48;;;;;;;0.97;0.43;;;;;;;6.52;64.26;98323.13;4990689;28;20348;-72
2021/01/21 10:20:14;;;;;;;0.67;0.20;;;;;;;6.52;64.41;98304.91;4991551;28;20185;-72
2021/01/21 10:22:40;;;;;;;0.00;0.00;;;;;;;6.53;64.32;98301.06;4991159;28;20185;-72
2021/01/21 10:25:06;;;;;;;0.30;0.13;;;;;;;6.53;64.20;98355.31;4973510;28;20204;-73
2021/01/21 10:27:31;;;;;;;0.23;0.10;;;;;;;6.54;64.22;98354.19;4990434;28;20173;-73
2021/01/21 10:29:56;;;;;;;0.00;0.00;;;;;;;6.53;64.04;98340.97;4991198;28;20321;-73
2021/01/21 10:32:22;;;;;;;0.00;0.00;;;;;;;6.53;64.93;98339.06;4990992;28;20185;-72
2021/01/21 10:34:47;;;;;;;7.63;0.10;;;;;;;6.55;64.68;98342.22;4990897;28;20185;-72
2021/01/21 10:37:12;;;;;;;2.73;0.40;;;;;;;6.56;64.16;98329.44;4990507;28;20177;-72
2021/01/21 10:39:38;;;;;;;1.37;0.40;;;;;;;6.55;63.67;98363.91;4991032;28;20173;-72
2021/01/21 10:42:03;;;;;;;0.60;0.33;;;;;;;6.58;63.68;98370.59;4990863;28;20173;-73
2021/01/21 10:44:28;;;;;;;0.60;0.13;;;;;;;6.60;63.83;98370.25;4990860;28;20173;-73
2021/01/21 10:46:54;;;;;;;1.03;0.50;;;;;;;6.60;63.74;98351.25;4990139;28;20203;-72
2021/01/21 10:49:19;;;;;;;5.87;0.10;;;;;;;6.64;63.12;98352.16;4990843;28;20181;-72
2021/01/21 10:51:47;;;;;;;0.23;0.23;;;;;;;6.66;63.19;98344.50;4990953;28;20308;-73
2021/01/21 10:54:13;;;;;;;1.27;0.23;;;;;;;6.70;63.09;98331.84;4990818;28;20231;-76
2021/01/21 10:56:38;;;;;;;0.00;0.00;;;;;;;6.69;62.78;98322.13;4990381;28;20217;-72
2021/01/21 10:59:05;;;;;;;1.87;0.60;;;;;;;6.70;63.65;98332.63;4973255;28;20187;-73
2021/01/21 11:01:31;;;;;;;1.40;0.30;;;;;;;6.72;64.35;98316.78;4990753;28;20207;-73
2021/01/21 11:03:57;;;;;;;0.97;0.30;;;;;;;6.75;63.90;98305.25;4989492;28;20480;-73
2021/01/21 11:06:22;;;;;;;0.57;0.20;;;;;;;6.68;64.56;98328.66;4990132;28;20679;-72
2021/01/21 11:08:47;;;;;;;1.60;0.20;;;;;;;6.68;65.38;98325.97;4990992;28;20184;-73
2021/01/21 11:11:13;;;;;;;0.63;0.27;;;;;;;6.75;65.12;98326.19;4991234;28;20722;-72
2021/01/21 11:13:38;;;;;;;0.43;0.20;;;;;;;6.76;64.63;98341.31;4994953;28;20208;-72
2021/01/21 11:16:05;;;;;;;0.30;0.10;;;;;;;6.77;65.22;98353.75;4994431;28;20644;-75
2021/01/21 11:18:30;;;;;;;1.10;0.30;;;;;;;6.84;65.47;98364.88;4994195;28;20256;-73
2021/01/21 11:20:55;;;;;;;0.40;0.17;;;;;;;6.86;65.12;98354.47;4994527;28;20260;-72
2021/01/21 11:23:21;;;;;;;0.40;0.40;;;;;;;6.75;64.15;98366.88;4976908;28;20517;-72
2021/01/21 11:25:46;;;;;;;2.53;0.57;;;;;;;6.66;64.96;98369.72;4994352;28;20255;-72
2021/01/21 11:28:11;;;;;;;0.20;0.10;;;;;;;6.57;64.87;98369.78;4993739;28;20601;-73
2021/01/21 11:30:37;;;;;;;2.07;0.20;;;;;;;6.59;66.18;98379.50;4994335;28;20173;-72
2021/01/21 11:33:03;;;;;;;2.80;0.40;;;;;;;6.73;66.21;98378.06;4994074;28;20177;-73
2021/01/21 11:35:28;;;;;;;1.23;0.23;;;;;;;6.90;65.22;98379.00;4994112;28;20260;-72
2021/01/21 11:37:54;;;;;;;0.80;0.40;;;;;;;6.98;64.99;98361.84;4993527;28;20681;-73
2021/01/21 11:40:19;;;;;;;0.47;0.20;;;;;;;6.96;64.91;98350.53;4994300;28;20180;-72
2021/01/21 11:42:45;;;;;;;0.53;0.20;;;;;;;7.00;64.01;98346.78;4994153;28;20222;-74
2021/01/21 11:45:12;;;;;;;0.30;0.20;;;;;;;7.00;64.20;98352.22;4992655;28;20220;-74